Terminal Aerodrome Forecast
Issued by NWS Sioux Falls, SD

Home | Current Version | Previous Version | Graphics & Text | Print | Product List | Glossary Off
Versions: 1 2 3 4 5 6 7 8 9 10 11 12 13 14 15 16 17

187
FTUS43 KFSD 191244 AAA
TAFFSD
TAF AMD
KFSD 191244Z 1913/2012 10007KT 4SM BR OVC005
      TEMPO 1913/1914 OVC004
     FM191400 12007KT P6SM BKN070
     FM192200 16014KT P6SM SCT200
     FM200100 16012KT P6SM VCTS SCT060CB SCT200
     FM200600 13008KT P6SM BKN130
     FM201100 06008KT P6SM BKN050=

USA.gov is the U.S. government's official web portal to all federal, state and local government web resources and services.